createdAt,value
2022-09-14T00:02:18.243Z,94376.41
2022-09-14T00:05:22.063Z,94379.81
2022-09-14T00:08:25.478Z,94384.34
2022-09-14T00:11:31.754Z,94383.75
2022-09-14T00:14:35.713Z,94382.66
2022-09-14T00:17:38.981Z,94376.78
2022-09-14T00:20:43.445Z,94366.94
2022-09-14T00:23:47.693Z,94349.50
2022-09-14T00:26:52.399Z,94350.81
2022-09-14T00:29:56.326Z,94335.38
2022-09-14T00:32:59.827Z,94327.38
2022-09-14T00:36:11.693Z,94311.91
2022-09-14T00:39:18.263Z,94315.91
2022-09-14T00:42:21.748Z,94311.88
2022-09-14T00:45:26.919Z,94331.44
2022-09-14T00:48:31.553Z,94342.94
2022-09-14T00:51:39.079Z,94337.31
2022-09-14T00:54:59.874Z,94319.13
2022-09-14T00:58:03.857Z,94323.06
2022-09-14T01:01:09.066Z,94319.16
2022-09-14T01:04:12.487Z,94334.06
2022-09-14T01:07:40.361Z,94336.22
2022-09-14T01:11:08.202Z,94341.03
2022-09-14T01:14:45.421Z,94341.06
2022-09-14T01:18:10.261Z,94349.97
2022-09-14T01:21:16.134Z,94343.97
2022-09-14T01:24:28.973Z,94359.66
2022-09-14T01:27:37.093Z,94348.16
2022-09-14T01:30:42.901Z,94359.59
2022-09-14T01:34:06.429Z,94352.84
2022-09-14T01:37:19.805Z,94359.72
2022-09-14T01:40:44.101Z,94369.34
2022-09-14T01:43:54.556Z,94365.34
2022-09-14T01:47:08.115Z,94369.75
2022-09-14T01:50:18.730Z,94384.22
2022-09-14T01:53:24.705Z,94384.09
2022-09-14T01:56:36.241Z,94391.38
2022-09-14T01:59:46.730Z,94392.78
2022-09-14T02:02:57.341Z,94374.28
2022-09-14T02:06:30.686Z,94377.81
2022-09-14T02:09:34.701Z,94380.34
2022-09-14T02:12:39.853Z,94379.56
2022-09-14T02:15:42.901Z,94371.22
2022-09-14T02:18:46.675Z,94373.72
2022-09-14T02:21:50.478Z,94371.72
2022-09-14T02:24:55.571Z,94363.69
2022-09-14T02:27:59.632Z,94366.19
2022-09-14T02:31:17.514Z,94370.06
2022-09-14T02:34:34.949Z,94369.91
2022-09-14T02:37:38.923Z,94372.44
2022-09-14T02:41:20.063Z,94374.16
2022-09-14T02:44:48.080Z,94367.78
2022-09-14T02:48:02.967Z,94373.19
2022-09-14T02:51:20.427Z,94361.75
2022-09-14T02:54:27.809Z,94354.41
2022-09-14T02:57:32.024Z,94351.81
2022-09-14T03:00:44.906Z,94339.84
2022-09-14T03:03:48.362Z,94344.13
2022-09-14T03:06:52.888Z,94329.69
2022-09-14T03:09:56.514Z,94330.28
2022-09-14T03:13:01.366Z,94324.22
2022-09-14T03:16:12.774Z,94329.75
2022-09-14T03:19:17.060Z,94326.97
2022-09-14T03:22:19.979Z,94330.84
2022-09-14T03:25:23.762Z,94318.59
2022-09-14T03:28:27.164Z,94313.66
2022-09-14T03:31:30.965Z,94315.72
2022-09-14T03:34:35.098Z,94306.22
2022-09-14T03:37:39.995Z,94295.94
2022-09-14T03:40:43.876Z,94294.63
2022-09-14T03:43:48.272Z,94287.25
2022-09-14T03:46:52.180Z,94289.28
2022-09-14T03:49:56.159Z,94283.94
2022-09-14T03:53:00.153Z,94288.75
2022-09-14T03:56:12.546Z,94280.00
2022-09-14T03:59:15.405Z,94279.47
2022-09-14T04:02:18.786Z,94280.34
2022-09-14T04:05:22.555Z,94265.53
2022-09-14T04:08:27.432Z,94251.22
2022-09-14T04:11:32.132Z,94237.66
2022-09-14T04:14:36.460Z,94241.72
2022-09-14T04:17:41.088Z,94246.50
2022-09-14T04:20:44.437Z,94250.50
2022-09-14T04:27:12.231Z,94257.97
2022-09-14T04:30:16.056Z,94250.53
2022-09-14T04:33:19.848Z,94248.69
2022-09-14T04:36:24.280Z,94240.59
2022-09-14T04:39:28.380Z,94234.78
2022-09-14T04:42:31.920Z,94228.88
2022-09-14T04:45:37.224Z,94216.69
2022-09-14T04:48:41.701Z,94206.50
2022-09-14T04:51:46.461Z,94202.28
2022-09-14T04:54:50.504Z,94200.78
2022-09-14T04:57:54.380Z,94202.19
2022-09-14T05:01:12.257Z,94194.81
2022-09-14T05:04:16.357Z,94190.69
2022-09-14T05:07:19.987Z,94194.69
2022-09-14T05:10:24.093Z,94191.22
2022-09-14T05:13:27.747Z,94193.19
2022-09-14T05:16:34.531Z,94200.63
2022-09-14T05:19:37.748Z,94203.28
2022-09-14T05:22:41.765Z,94191.13
2022-09-14T05:25:45.498Z,94180.38
2022-09-14T05:29:01.312Z,94178.47
2022-09-14T05:32:05.465Z,94177.19
2022-09-14T05:35:09.564Z,94185.47
2022-09-14T05:38:13.277Z,94186.88
2022-09-14T05:41:17.626Z,94166.03
2022-09-14T05:44:21.252Z,94168.06
2022-09-14T05:47:24.972Z,94162.66
2022-09-14T05:50:28.613Z,94159.28
2022-09-14T05:53:32.649Z,94145.09
2022-09-14T05:56:36.008Z,94151.84
2022-09-14T05:59:40.013Z,94149.75
2022-09-14T06:02:50.550Z,94165.91
2022-09-14T06:05:58.262Z,94171.22
2022-09-14T06:09:02.269Z,94187.94
2022-09-14T06:12:06.455Z,94199.75
2022-09-14T06:15:11.522Z,94201.06
2022-09-14T06:18:15.712Z,94190.91
2022-09-14T06:21:20.881Z,94187.47
2022-09-14T06:24:25.133Z,94193.47
2022-09-14T06:27:28.285Z,94207.03
2022-09-14T06:30:32.302Z,94208.28
2022-09-14T06:33:36.305Z,94202.66
2022-09-14T06:36:40.286Z,94201.91
2022-09-14T06:39:43.851Z,94202.50
2022-09-14T06:42:48.030Z,94199.06
2022-09-14T06:46:08.338Z,94195.03
2022-09-14T06:49:18.645Z,94193.44
2022-09-14T06:52:22.421Z,94189.31
2022-09-14T06:55:26.119Z,94188.53
2022-09-14T06:58:29.942Z,94187.66
2022-09-14T07:01:34.317Z,94187.53
2022-09-14T07:04:37.988Z,94170.06
2022-09-14T07:07:42.057Z,94160.69
2022-09-14T07:10:55.888Z,94172.59
2022-09-14T07:14:00.201Z,94161.44
2022-09-14T07:17:03.979Z,94162.97
2022-09-14T07:20:08.751Z,94172.84
2022-09-14T07:23:14.069Z,94173.88
2022-09-14T07:26:24.288Z,94174.31
2022-09-14T07:29:28.002Z,94179.31
2022-09-14T07:32:31.047Z,94166.22
2022-09-14T07:35:34.785Z,94161.25
2022-09-14T07:38:53.757Z,94174.69
2022-09-14T07:41:58.334Z,94161.28
2022-09-14T07:45:02.082Z,94162.56
2022-09-14T07:48:06.288Z,94165.34
2022-09-14T07:51:12.119Z,94155.25
2022-09-14T07:54:17.453Z,94163.88
2022-09-14T07:57:39.468Z,94168.94
2022-09-14T08:00:45.129Z,94157.78
2022-09-14T08:03:49.911Z,94144.38
2022-09-14T08:06:53.452Z,94136.22
2022-09-14T08:09:57.445Z,94106.03
2022-09-14T08:13:01.162Z,94101.28
2022-09-14T08:16:06.984Z,94101.25
2022-09-14T08:19:20.970Z,94091.09
2022-09-14T08:22:24.197Z,94107.78
2022-09-14T08:25:27.181Z,94110.38
2022-09-14T08:28:31.178Z,94104.31
2022-09-14T08:31:38.027Z,94098.94
2022-09-14T08:34:41.902Z,94086.72
2022-09-14T08:37:45.367Z,94092.03
2022-09-14T08:40:49.491Z,94089.22
2022-09-14T08:43:53.996Z,94101.25
2022-09-14T08:47:00.797Z,94110.34
2022-09-14T08:50:12.710Z,94105.72
2022-09-14T08:53:16.424Z,94106.31
2022-09-14T08:56:25.750Z,94124.13
2022-09-14T08:59:41.892Z,94122.41
2022-09-14T09:03:07.207Z,94116.03
2022-09-14T09:06:22.841Z,94126.06
2022-09-14T09:09:43.632Z,94119.50
2022-09-14T09:12:51.236Z,94126.03
2022-09-14T09:15:59.174Z,94120.94
2022-09-14T09:19:11.674Z,94117.06
2022-09-14T09:22:18.295Z,94096.59
2022-09-14T09:25:25.565Z,94072.06
2022-09-14T09:28:30.709Z,94047.31
2022-09-14T09:31:37.199Z,94046.19
2022-09-14T09:35:02.096Z,94085.16
2022-09-14T09:38:37.582Z,94108.56
2022-09-14T09:41:58.732Z,94131.91
2022-09-14T09:45:06.401Z,94130.09
2022-09-14T09:48:11.699Z,94137.22
2022-09-14T09:51:23.491Z,94141.22
2022-09-14T09:54:31.559Z,94131.31
2022-09-14T09:57:37.559Z,94140.81
2022-09-14T10:00:41.244Z,94138.88
2022-09-14T10:03:52.019Z,94133.00
2022-09-14T10:06:58.909Z,94117.56
2022-09-14T10:10:07.699Z,94124.31
2022-09-14T10:13:35.344Z,94115.81
2022-09-14T10:16:43.629Z,94113.25
2022-09-14T10:19:53.471Z,94123.09
2022-09-14T10:23:02.094Z,94125.22
2022-09-14T10:26:16.409Z,94106.34
2022-09-14T10:29:22.263Z,94099.09
2022-09-14T10:32:27.248Z,94099.28
2022-09-14T10:35:34.501Z,94089.44
2022-09-14T10:39:16.732Z,94088.41
2022-09-14T10:42:43.776Z,94064.25
2022-09-14T10:45:51.302Z,94045.31
2022-09-14T10:49:13.018Z,94075.38
2022-09-14T10:52:49.918Z,94086.94
2022-09-14T10:55:53.597Z,94103.16
2022-09-14T10:59:23.108Z,94099.94
2022-09-14T11:02:56.161Z,94099.31
2022-09-14T11:06:42.480Z,94086.19
2022-09-14T11:09:45.824Z,94094.16
2022-09-14T11:13:26.604Z,94093.59
2022-09-14T11:16:51.201Z,94068.75
2022-09-14T11:20:48.931Z,94066.06
2022-09-14T11:24:14.432Z,94058.75
2022-09-14T11:28:06.312Z,94042.03
2022-09-14T11:31:18.791Z,94052.09
2022-09-14T11:34:28.817Z,94057.41
2022-09-14T11:38:06.955Z,94089.00
2022-09-14T11:41:28.961Z,94094.16
2022-09-14T11:44:42.207Z,94082.09
2022-09-14T11:47:54.692Z,94089.41
2022-09-14T11:51:09.050Z,94079.47
2022-09-14T11:54:24.837Z,94080.16
2022-09-14T11:57:33.366Z,94067.50
2022-09-14T12:00:46.656Z,94062.13
2022-09-14T12:04:05.809Z,94052.88
2022-09-14T12:07:09.874Z,94050.88
2022-09-14T12:10:16.426Z,94060.97
2022-09-14T12:13:22.000Z,94066.88
2022-09-14T12:16:25.100Z,94061.59
2022-09-14T12:19:29.227Z,94056.91
2022-09-14T12:22:38.432Z,94058.94
2022-09-14T12:26:01.167Z,94052.97
2022-09-14T12:29:28.314Z,94051.66
2022-09-14T12:32:44.243Z,94052.97
2022-09-14T12:35:48.171Z,94059.06
2022-09-14T12:38:52.864Z,94050.31
2022-09-14T12:41:57.015Z,94052.94
2022-09-14T12:45:38.417Z,94067.84
2022-09-14T12:48:51.854Z,94053.66
2022-09-14T12:51:55.899Z,94048.81
2022-09-14T12:55:38.618Z,94050.72
2022-09-14T12:59:00.458Z,94052.78
2022-09-14T13:02:31.711Z,94047.75
2022-09-14T13:05:35.735Z,94041.41
2022-09-14T13:08:38.772Z,94045.06
2022-09-14T13:11:42.576Z,94044.59
2022-09-14T13:14:56.956Z,94032.06
2022-09-14T13:18:05.834Z,94023.38
2022-09-14T13:21:20.280Z,94028.13
2022-09-14T13:24:27.682Z,94038.94
2022-09-14T13:27:36.630Z,94032.34
2022-09-14T13:30:44.200Z,94026.34
2022-09-14T13:33:53.564Z,94016.97
2022-09-14T13:36:58.270Z,94021.09
2022-09-14T13:40:02.113Z,94013.78
2022-09-14T13:43:06.500Z,94012.53
2022-09-14T13:46:12.399Z,94018.38
2022-09-14T13:49:16.706Z,94020.72
2022-09-14T13:52:22.706Z,94024.56
2022-09-14T13:55:29.875Z,94018.59
2022-09-14T13:58:35.684Z,94006.34
2022-09-14T14:01:41.221Z,94015.63
2022-09-14T14:04:49.667Z,94020.88
2022-09-14T14:07:53.179Z,94028.19
2022-09-14T14:10:56.701Z,94024.06
2022-09-14T14:14:17.040Z,94032.50
2022-09-14T14:17:25.469Z,94024.25
2022-09-14T14:20:29.394Z,94028.72
2022-09-14T14:23:33.249Z,94019.31
2022-09-14T14:26:37.039Z,94016.78
2022-09-14T14:29:41.187Z,93996.28
2022-09-14T14:32:44.546Z,94000.47
2022-09-14T14:35:49.195Z,93993.25
2022-09-14T14:38:52.852Z,93983.97
2022-09-14T14:41:56.838Z,93963.34
2022-09-14T14:45:01.212Z,93961.38
2022-09-14T14:48:05.709Z,93955.47
2022-09-14T14:51:14.775Z,93907.38
2022-09-14T14:54:19.549Z,93859.06
2022-09-14T14:57:23.176Z,93845.38
2022-09-14T15:00:26.965Z,93845.84
2022-09-14T15:03:30.839Z,93845.78
2022-09-14T15:06:36.656Z,93894.03
2022-09-14T15:09:40.769Z,93928.72
2022-09-14T15:12:44.535Z,93916.03
2022-09-14T15:15:47.613Z,93899.59
2022-09-14T15:18:50.867Z,93906.03
2022-09-14T15:21:57.289Z,93902.06
2022-09-14T15:25:04.863Z,93916.53
2022-09-14T15:28:09.045Z,93957.84
2022-09-14T15:31:13.213Z,93976.44
2022-09-14T15:34:16.325Z,93958.59
2022-09-14T15:37:19.280Z,93947.44
2022-09-14T15:40:22.404Z,93936.03
2022-09-14T15:43:25.834Z,93928.19
2022-09-14T15:46:29.544Z,93905.72
2022-09-14T15:49:33.017Z,93881.25
2022-09-14T15:52:38.217Z,93840.06
2022-09-14T15:55:46.593Z,93787.97
2022-09-14T15:58:49.497Z,93768.66
2022-09-14T16:01:53.185Z,93757.81
2022-09-14T16:04:56.504Z,93739.78
2022-09-14T16:08:00.426Z,93756.56
2022-09-14T16:11:05.482Z,93791.88
2022-09-14T16:14:11.520Z,93833.72
2022-09-14T16:17:16.170Z,93849.31
2022-09-14T16:20:21.740Z,93865.97
2022-09-14T16:23:25.686Z,93878.97
2022-09-14T16:26:33.104Z,93872.13
2022-09-14T16:29:36.979Z,93876.16
2022-09-14T16:32:40.977Z,93892.38
2022-09-14T16:35:44.570Z,93897.81
2022-09-14T16:38:48.269Z,93890.44
2022-09-14T16:41:52.770Z,93885.13
2022-09-14T16:44:56.779Z,93875.75
2022-09-14T16:48:00.407Z,93873.03
2022-09-14T16:51:04.851Z,93852.31
2022-09-14T16:54:09.794Z,93833.97
2022-09-14T16:57:13.737Z,93830.72
2022-09-14T17:00:17.493Z,93854.31
2022-09-14T17:03:21.535Z,93853.16
2022-09-14T17:06:30.157Z,93853.88
2022-09-14T17:09:33.823Z,93864.53
2022-09-14T17:12:37.582Z,93867.91
2022-09-14T17:15:41.529Z,93867.84
2022-09-14T17:18:49.371Z,93851.78
2022-09-14T17:21:54.123Z,93842.19
2022-09-14T17:24:57.306Z,93832.13
2022-09-14T17:28:01.220Z,93822.28
2022-09-14T17:31:08.342Z,93813.75
2022-09-14T17:34:14.296Z,93794.34
2022-09-14T17:37:18.437Z,93808.34
2022-09-14T17:40:21.476Z,93826.41
2022-09-14T17:43:24.479Z,93828.38
2022-09-14T17:46:29.395Z,93809.59
2022-09-14T17:49:33.160Z,93806.94
2022-09-14T17:52:36.670Z,93795.44
2022-09-14T17:55:40.264Z,93793.97
2022-09-14T17:58:44.802Z,93784.72
2022-09-14T18:01:49.543Z,93762.66
2022-09-14T18:04:53.265Z,93769.41
2022-09-14T18:07:57.004Z,93791.41
2022-09-14T18:11:09.127Z,93794.66
2022-09-14T18:14:16.246Z,93799.34
2022-09-14T18:17:20.468Z,93791.31
2022-09-14T18:20:24.452Z,93780.84
2022-09-14T18:23:29.396Z,93791.41
2022-09-14T18:26:33.584Z,93776.16
2022-09-14T18:29:37.872Z,93775.03
2022-09-14T18:32:41.473Z,93780.88
2022-09-14T18:35:45.922Z,93771.38
2022-09-14T18:38:51.988Z,93782.66
2022-09-14T18:41:57.275Z,93769.38
2022-09-14T18:45:00.989Z,93739.56
2022-09-14T18:48:05.072Z,93736.47
2022-09-14T18:51:09.339Z,93742.03
2022-09-14T18:54:14.451Z,93729.50
2022-09-14T18:57:20.044Z,93704.22
2022-09-14T19:00:24.854Z,93680.81
2022-09-14T19:03:28.639Z,93670.84
2022-09-14T19:06:34.511Z,93656.81
2022-09-14T19:09:38.155Z,93623.84
2022-09-14T19:12:43.134Z,93620.97
2022-09-14T19:15:46.733Z,93683.69
2022-09-14T19:18:51.220Z,93724.50
2022-09-14T19:21:54.976Z,93712.09
2022-09-14T19:24:58.888Z,93724.97
2022-09-14T19:28:02.830Z,93745.91
2022-09-14T19:31:14.357Z,93778.41
2022-09-14T19:34:18.152Z,93759.19
2022-09-14T19:37:21.515Z,93756.84
2022-09-14T19:40:25.092Z,93761.59
2022-09-14T19:43:29.012Z,93736.31
2022-09-14T19:46:32.040Z,93719.91
2022-09-14T19:49:36.016Z,93721.38
2022-09-14T19:52:38.943Z,93703.69
2022-09-14T19:55:41.897Z,93686.44
2022-09-14T19:58:47.480Z,93700.22
2022-09-14T20:01:51.944Z,93710.50
2022-09-14T20:04:55.977Z,93696.63
2022-09-14T20:07:59.809Z,93680.75
2022-09-14T20:11:19.060Z,93653.38
2022-09-14T20:14:25.437Z,93629.88
2022-09-14T20:17:29.101Z,93605.72
2022-09-14T20:20:36.173Z,93608.47
2022-09-14T20:23:52.447Z,93587.06
2022-09-14T20:27:03.766Z,93622.50
2022-09-14T20:30:09.194Z,93658.84
2022-09-14T20:33:12.585Z,93685.97
2022-09-14T20:36:20.774Z,93701.72
2022-09-14T20:39:24.536Z,93691.38
2022-09-14T20:42:28.662Z,93687.66
2022-09-14T20:45:32.008Z,93665.84
2022-09-14T20:48:35.561Z,93690.53
2022-09-14T20:51:39.525Z,93679.19
2022-09-14T20:54:43.210Z,93683.28
2022-09-14T20:57:46.846Z,93690.91
2022-09-14T21:01:01.090Z,93684.50
2022-09-14T21:04:10.163Z,93679.63
2022-09-14T21:07:13.840Z,93664.47
2022-09-14T21:10:16.917Z,93677.47
2022-09-14T21:13:20.597Z,93679.56
2022-09-14T21:16:25.712Z,93670.94
2022-09-14T21:19:29.406Z,93647.75
2022-09-14T21:22:32.650Z,93631.75
2022-09-14T21:25:35.673Z,93635.78
2022-09-14T21:28:40.892Z,93638.41
2022-09-14T21:31:45.291Z,93621.06
2022-09-14T21:34:49.135Z,93613.75
2022-09-14T21:37:52.859Z,93635.09
2022-09-14T21:40:57.144Z,93642.13
2022-09-14T21:44:00.868Z,93643.66
2022-09-14T21:47:05.735Z,93649.00
2022-09-14T21:50:09.228Z,93653.13
2022-09-14T21:53:12.488Z,93662.44
2022-09-14T21:56:16.877Z,93666.63
2022-09-14T21:59:22.216Z,93666.47
2022-09-14T22:02:25.311Z,93653.13
2022-09-14T22:05:28.842Z,93662.47
2022-09-14T22:08:34.007Z,93650.63
2022-09-14T22:11:39.750Z,93643.34
2022-09-14T22:14:43.061Z,93635.38
2022-09-14T22:17:47.627Z,93630.25
2022-09-14T22:21:01.140Z,93635.00
2022-09-14T22:24:08.204Z,93638.56
2022-09-14T22:27:11.807Z,93646.00
2022-09-14T22:30:15.279Z,93649.50
2022-09-14T22:33:19.564Z,93644.16
2022-09-14T22:36:24.003Z,93634.78
2022-09-14T22:39:27.612Z,93627.09
2022-09-14T22:42:32.052Z,93629.59
2022-09-14T22:45:35.681Z,93640.34
2022-09-14T22:48:39.464Z,93639.91
2022-09-14T22:51:42.332Z,93642.47
2022-09-14T22:54:45.909Z,93657.13
2022-09-14T22:57:48.880Z,93657.13
2022-09-14T23:00:52.863Z,93652.22
2022-09-14T23:04:01.878Z,93633.97
2022-09-14T23:07:05.009Z,93634.69
2022-09-14T23:10:09.406Z,93624.09
2022-09-14T23:13:13.080Z,93615.38
2022-09-14T23:16:19.333Z,93612.16
2022-09-14T23:19:22.589Z,93597.88
2022-09-14T23:22:26.423Z,93579.38
2022-09-14T23:25:29.428Z,93572.09
2022-09-14T23:28:34.356Z,93570.25
2022-09-14T23:31:38.098Z,93560.34
2022-09-14T23:34:41.066Z,93553.94
2022-09-14T23:37:44.251Z,93552.91
2022-09-14T23:40:50.196Z,93539.75
2022-09-14T23:43:54.529Z,93531.84
2022-09-14T23:46:57.825Z,93535.44
2022-09-14T23:50:00.826Z,93549.75
2022-09-14T23:53:03.891Z,93553.28
2022-09-14T23:56:07.538Z,93561.88
2022-09-14T23:59:13.875Z,93556.91
